GAGE L PATRICK, director of TTPH - Past Performance as of 12/16/17. Total 49 Records. Link to Thomson Financial
Buy(P) /
Sell(S)
P/S date Filed Date Company Symbol Insider Relationship Share Amt. Unit Price Total Proceeds Shares Owned Return(1m) Details
P 2017-11-29 2017-12-04 09:02:47 TETRAPHASE PHARMACEUTICALS INC TTPH GAGE L PATRICK director 3,880 $6.45 $25,026.00 38,880 view
S 2017-10-02 2017-10-04 18:54:21 CYTOKINETICS INC CYTK GAGE L PATRICK director 400 $14.40 $5,760.00 34,600 N/A view
S 2017-10-02 2017-10-04 18:54:21 CYTOKINETICS INC CYTK GAGE L PATRICK director 600 $14.45 $8,670.00 34,000 N/A view
S 2017-10-02 2017-10-04 18:54:21 CYTOKINETICS INC CYTK GAGE L PATRICK director 810 $14.55 $11,785.50 33,190 N/A view
S 2017-10-02 2017-10-04 18:54:21 CYTOKINETICS INC CYTK GAGE L PATRICK director 300 $14.60 $4,380.00 32,890 N/A view
S 2017-10-02 2017-10-04 18:54:21 CYTOKINETICS INC CYTK GAGE L PATRICK director 2,490 $14.65 $36,478.50 30,400 N/A view
S 2017-10-02 2017-10-04 18:54:21 CYTOKINETICS INC CYTK GAGE L PATRICK director 400 $14.68 $5,870.00 30,000 N/A view
S 2017-09-01 2017-09-01 19:22:04 CYTOKINETICS INC CYTK GAGE L PATRICK director 300 $14.60 $4,380.00 34,700 N/A view
S 2017-09-01 2017-09-01 19:22:04 CYTOKINETICS INC CYTK GAGE L PATRICK director 1,100 $14.65 $16,115.00 33,600 N/A view
S 2017-09-01 2017-09-01 19:22:04 CYTOKINETICS INC CYTK GAGE L PATRICK director 600 $14.68 $8,805.00 33,000 N/A view
S 2017-09-01 2017-09-01 19:22:04 CYTOKINETICS INC CYTK GAGE L PATRICK director 900 $14.70 $13,230.00 32,100 N/A view
S 2017-09-01 2017-09-01 19:22:04 CYTOKINETICS INC CYTK GAGE L PATRICK director 500 $14.73 $7,362.50 31,600 N/A view
S 2017-09-01 2017-09-01 19:22:04 CYTOKINETICS INC CYTK GAGE L PATRICK director 500 $14.75 $7,375.00 31,100 N/A view
S 2017-09-01 2017-09-01 19:22:04 CYTOKINETICS INC CYTK GAGE L PATRICK director 700 $14.85 $10,395.00 30,400 N/A view
S 2017-09-01 2017-09-01 19:22:04 CYTOKINETICS INC CYTK GAGE L PATRICK director 400 $14.90 $5,960.00 30,000 N/A view
S 2017-08-29 2017-08-30 19:30:15 CYTOKINETICS INC CYTK GAGE L PATRICK director 5,000 $14.00 $70,000.00 30,000 N/A view
P 2017-03-15 2017-03-16 16:23:03 TETRAPHASE PHARMACEUTICALS INC TTPH GAGE L PATRICK director 10,000 $7.49 $74,900.00 35,000 N/A view
P 2017-03-15 2017-03-16 16:23:03 TETRAPHASE PHARMACEUTICALS INC TTPH GAGE L PATRICK director 1,000 $7.47 $7,470.00 3,825 N/A view
P 2015-08-31 2015-09-01 20:26:49 CYTOKINETICS INC CYTK GAGE L PATRICK director 1,000 $6.95 $6,950.00 1,850 N/A view
P 2015-08-20 2015-08-21 19:44:02 CYTOKINETICS INC CYTK GAGE L PATRICK director 1,100 $6.47 $7,117.00 21,100 N/A view
P 2015-08-20 2015-08-21 19:44:02 CYTOKINETICS INC CYTK GAGE L PATRICK director 600 $6.48 $3,888.00 21,700 N/A view
P 2015-08-20 2015-08-21 19:44:02 CYTOKINETICS INC CYTK GAGE L PATRICK director 900 $6.47 $5,818.50 22,600 N/A view
P 2015-08-20 2015-08-21 19:44:02 CYTOKINETICS INC CYTK GAGE L PATRICK director 100 $6.46 $646.25 22,700 N/A view
P 2015-08-20 2015-08-21 19:44:02 CYTOKINETICS INC CYTK GAGE L PATRICK director 700 $6.50 $4,550.00 23,400 N/A view
P 2015-08-20 2015-08-21 19:44:02 CYTOKINETICS INC CYTK GAGE L PATRICK director 300 $6.59 $1,977.00 23,700 N/A view
P 2015-08-20 2015-08-21 19:44:02 CYTOKINETICS INC CYTK GAGE L PATRICK director 420 $6.46 $2,713.20 24,120 N/A view
P 2015-08-20 2015-08-21 19:44:02 CYTOKINETICS INC CYTK GAGE L PATRICK director 4,980 $6.60 $32,868.00 29,100 N/A view
P 2015-08-20 2015-08-21 19:44:02 CYTOKINETICS INC CYTK GAGE L PATRICK director 700 $6.59 $4,616.50 29,800 N/A view
P 2015-08-20 2015-08-21 19:44:02 CYTOKINETICS INC CYTK GAGE L PATRICK director 200 $6.47 $1,295.00 30,000 N/A view
S 2015-08-12 2015-08-14 17:29:01 TETRAPHASE PHARMACEUTICALS INC TTPH GAGE L PATRICK director 15,000 $45.00 $675,000.00 5,000 N/A view
P 2015-05-06 2015-05-08 15:52:41 CYTOKINETICS INC CYTK GAGE L PATRICK director 4,800 $5.72 $27,456.00 14,800 N/A view
P 2015-05-06 2015-05-08 15:52:41 CYTOKINETICS INC CYTK GAGE L PATRICK director 200 $5.71 $1,142.00 15,000 N/A view
P 2015-05-06 2015-05-08 15:52:41 CYTOKINETICS INC CYTK GAGE L PATRICK director 3,808 $5.71 $21,743.30 18,808 N/A view
P 2015-05-06 2015-05-08 15:52:41 CYTOKINETICS INC CYTK GAGE L PATRICK director 1,192 $5.69 $6,782.48 20,000 N/A view
P 2014-06-05 2014-06-09 09:22:04 TETRAPHASE PHARMACEUTICALS INC TTPH GAGE L PATRICK director 975 $10.28 $10,026.90 2,325 34.29% view
P 2014-06-04 2014-06-05 16:50:36 TETRAPHASE PHARMACEUTICALS INC TTPH GAGE L PATRICK director 500 $10.05 $5,025.00 1,350 37.41% view
P 2014-05-28 2014-06-03 19:06:44 TETRAPHASE PHARMACEUTICALS INC TTPH GAGE L PATRICK director 850 $10.70 $9,095.00 850 26.73% view
P 2014-05-14 2014-05-16 16:49:02 TETRAPHASE PHARMACEUTICALS INC TTPH GAGE L PATRICK director 5,000 $9.25 $46,249.00 5,000 23.68% view
P 2014-05-09 2014-05-12 20:34:05 CYTOKINETICS INC CYTK GAGE L PATRICK director 10,000 $4.09 $40,892.00 10,000 20.81% view
P 2014-05-09 2014-05-12 20:34:05 CYTOKINETICS INC CYTK GAGE L PATRICK director 850 $4.10 $3,485.00 850 20.49% view
P 2007-06-07 2007-06-12 15:19:41 NEOSE TECHNOLOGIES INC NTEC GAGE L PATRICK director 13,900 $2.59 $36,001.00 41,600 -8.88% view
P 2007-06-08 2007-06-12 15:19:41 NEOSE TECHNOLOGIES INC NTEC GAGE L PATRICK director 15,050 $2.60 $39,130.00 56,650 -9.23% view
P 2007-06-11 2007-06-12 15:19:41 NEOSE TECHNOLOGIES INC NTEC GAGE L PATRICK director 10,550 $2.60 $27,430.00 67,200 -10.38% view
P 2007-03-26 2007-03-27 12:09:39 NEOSE TECHNOLOGIES INC NTEC GAGE L PATRICK director 10,200 $2.00 $20,400.00 22,900 32.00% view
P 2007-03-26 2007-03-27 12:09:39 NEOSE TECHNOLOGIES INC NTEC GAGE L PATRICK director 4,800 $2.07 $9,936.00 27,700 27.54% view
P 2005-05-05 2005-05-06 20:15:57 PROTEIN DESIGN LABS INC/DE PDLI GAGE L PATRICK director 3,000 $18.05 $54,150.00 5,000 5.65% view
P 2005-05-05 2005-05-06 20:15:57 PROTEIN DESIGN LABS INC/DE PDLI GAGE L PATRICK director 2,555 $18.04 $46,092.20 7,555 5.71% view
P 2005-05-05 2005-05-06 11:44:35 NEOSE TECHNOLOGIES INC NTEC GAGE L PATRICK director 3,000 $2.78 $8,337.00 6,500 -14.00% view
P 2005-05-05 2005-05-06 11:44:35 NEOSE TECHNOLOGIES INC NTEC GAGE L PATRICK director 6,200 $2.78 $17,236.00 12,700 -14.03% view
* Filed by insider as open market transaction, but marked as private transaction by insidercow's proprietary method